createdAt,value
2023-01-19T05:11:27.174Z,19.90
2023-01-19T05:12:27.060Z,19.89
2023-01-19T05:13:27.113Z,19.89
2023-01-19T05:14:26.996Z,19.89
2023-01-19T05:15:26.960Z,19.89
2023-01-19T05:16:26.933Z,19.89
2023-01-19T05:17:26.900Z,19.89
2023-01-19T05:18:26.852Z,19.89
2023-01-19T05:19:26.877Z,19.90
2023-01-19T05:20:26.779Z,19.89
2023-01-19T05:21:26.749Z,19.90
2023-01-19T05:22:26.700Z,19.90
2023-01-19T05:23:26.675Z,19.89
2023-01-19T05:24:26.631Z,19.90
2023-01-19T05:25:27.161Z,19.89
2023-01-19T05:26:26.580Z,19.90
2023-01-19T05:27:26.549Z,19.90
2023-01-19T05:28:26.489Z,19.90
2023-01-19T05:29:26.451Z,19.90
2023-01-19T05:30:26.413Z,19.90
2023-01-19T05:31:26.474Z,19.90
2023-01-19T05:32:26.344Z,19.90
2023-01-19T05:33:26.307Z,19.90
2023-01-19T05:34:26.271Z,19.91
2023-01-19T05:35:35.738Z,19.89
2023-01-19T05:36:27.153Z,19.90
2023-01-19T05:37:26.082Z,19.90
2023-01-19T05:38:34.645Z,19.90
2023-01-19T05:39:26.923Z,19.89
2023-01-19T05:40:25.850Z,19.90
2023-01-19T05:41:25.752Z,19.90
2023-01-19T05:42:25.686Z,19.89
2023-01-19T05:43:25.607Z,19.90
2023-01-19T05:44:25.524Z,19.90
2023-01-19T07:46:16.768Z,21.81
2023-01-19T07:47:16.587Z,21.82
2023-01-19T07:48:16.538Z,21.83
2023-01-19T07:49:16.448Z,21.86
2023-01-19T07:50:16.384Z,21.88
2023-01-19T07:51:16.301Z,21.83
2023-01-19T07:52:16.225Z,21.64
2023-01-19T07:53:16.183Z,21.51
2023-01-19T07:54:16.230Z,21.43
2023-01-19T07:55:16.703Z,21.42
2023-01-19T07:56:16.105Z,21.42
2023-01-19T07:57:16.120Z,21.44
2023-01-19T07:58:16.015Z,21.45
2023-01-19T07:59:15.974Z,21.48
2023-01-19T08:00:15.931Z,21.51
2023-01-19T08:01:16.351Z,21.55
2023-01-19T08:02:17.269Z,21.59
2023-01-19T08:03:15.794Z,21.63
2023-01-19T08:04:15.791Z,21.65
2023-01-19T08:05:15.667Z,21.68
2023-01-19T08:06:15.600Z,21.71
2023-01-19T08:07:15.551Z,21.74
2023-01-19T09:46:06.795Z,22.05
2023-01-19T09:47:06.624Z,22.07
2023-01-19T09:57:06.194Z,22.19
2023-01-19T09:58:06.065Z,22.21
2023-01-19T09:59:06.005Z,22.21
2023-01-19T10:00:05.949Z,22.22
2023-01-19T10:01:06.032Z,22.24
2023-01-19T10:02:05.802Z,22.25
2023-01-19T10:03:05.782Z,22.26
2023-01-19T10:04:05.684Z,22.29
2023-01-19T10:05:05.636Z,22.29
2023-01-19T10:06:05.536Z,22.31
2023-01-19T10:07:05.526Z,22.32
2023-01-19T13:01:59.198Z,20.75
2023-01-19T13:02:59.209Z,20.75
2023-01-19T13:03:59.025Z,20.75
2023-01-19T13:04:59.006Z,20.75
2023-01-19T13:05:59.745Z,20.75
2023-01-19T13:06:58.933Z,20.77
2023-01-19T13:07:58.925Z,20.80
2023-01-19T13:08:58.986Z,20.86
2023-01-19T13:13:58.824Z,21.09
2023-01-19T13:14:59.069Z,21.12
2023-01-19T13:15:58.788Z,21.17
2023-01-19T13:16:58.739Z,21.20
2023-01-19T13:17:58.703Z,21.25
2023-01-19T13:18:58.708Z,21.29
2023-01-19T13:19:58.610Z,21.31
2023-01-19T13:20:58.575Z,21.35
2023-01-19T13:21:58.674Z,21.36
2023-01-19T13:22:58.463Z,21.39
2023-01-19T13:23:58.419Z,21.42
2023-01-19T13:24:58.434Z,21.44
2023-01-19T13:25:58.305Z,21.46
2023-01-19T13:26:58.324Z,21.49
2023-01-19T13:27:58.179Z,21.51
2023-01-19T13:28:58.099Z,21.52
2023-01-19T13:29:58.438Z,21.55
2023-01-19T13:30:58.138Z,21.56
2023-01-19T13:31:57.883Z,21.58
2023-01-19T13:32:58.743Z,21.60
2023-01-19T13:33:57.747Z,21.61
2023-01-19T13:34:57.821Z,21.63
2023-01-19T13:35:57.593Z,21.64
2023-01-19T13:36:58.320Z,21.65
2023-01-19T13:37:57.461Z,21.66
2023-01-19T13:38:57.375Z,21.67
2023-01-19T13:39:57.295Z,21.68
2023-01-19T13:40:57.289Z,21.69
2023-01-19T13:41:57.135Z,21.69
2023-01-19T13:42:57.057Z,21.70
2023-01-19T13:43:56.984Z,21.71
2023-01-19T13:44:56.910Z,21.73
2023-01-19T13:45:56.828Z,21.74
2023-01-19T13:46:56.766Z,21.74
2023-01-19T13:47:56.680Z,21.75
2023-01-19T13:48:56.605Z,21.75
2023-01-19T13:49:56.528Z,21.76
2023-01-19T13:50:56.459Z,21.75
2023-01-19T13:51:56.378Z,21.77
2023-01-19T13:52:56.827Z,21.77
2023-01-19T13:53:56.254Z,21.77
2023-01-19T13:54:56.142Z,21.76
2023-01-19T13:55:56.054Z,21.76
2023-01-19T13:56:55.970Z,21.75
2023-01-19T13:57:55.893Z,21.73
2023-01-19T13:58:55.824Z,21.72
2023-01-19T13:59:55.730Z,21.72
2023-01-19T14:00:55.734Z,21.71
2023-01-19T14:01:55.688Z,21.71
2023-01-19T14:45:51.997Z,21.78
2023-01-19T14:46:51.933Z,21.77
2023-01-19T14:47:51.848Z,21.76
2023-01-19T15:11:07.783Z,21.16
2023-01-19T15:12:07.736Z,21.13
2023-01-19T15:13:07.682Z,21.12
2023-01-19T15:14:07.624Z,21.10
2023-01-19T15:15:07.756Z,21.08
2023-01-19T15:16:07.547Z,21.07
2023-01-19T15:17:07.487Z,21.06
2023-01-19T15:18:07.463Z,21.03
2023-01-19T15:19:07.401Z,21.03
2023-01-19T15:20:07.367Z,21.02
2023-01-19T15:21:07.291Z,20.99
2023-01-19T15:22:07.243Z,20.98
2023-01-19T15:23:07.206Z,20.96
2023-01-19T15:24:07.165Z,20.96
2023-01-19T15:25:07.396Z,20.95
2023-01-19T15:26:07.075Z,20.94
2023-01-19T15:27:07.013Z,20.93
2023-01-19T15:28:06.971Z,20.92
2023-01-19T15:29:06.926Z,20.91
2023-01-19T15:30:06.874Z,20.90
2023-01-19T15:31:06.898Z,20.90
2023-01-19T15:32:06.787Z,20.89
2023-01-19T15:33:06.750Z,20.88
2023-01-19T15:35:06.858Z,20.86
2023-01-19T15:36:06.589Z,20.85
2023-01-19T15:37:06.543Z,20.84
2023-01-19T15:38:06.495Z,20.83
2023-01-19T15:39:06.452Z,20.82
2023-01-19T15:40:06.388Z,20.81
2023-01-19T15:41:06.845Z,20.81
2023-01-19T15:42:06.441Z,20.79
2023-01-19T15:43:06.251Z,20.79
2023-01-19T15:44:06.196Z,20.78
2023-01-19T15:45:06.744Z,20.78
2023-01-19T15:46:06.174Z,20.77
2023-01-19T15:47:06.029Z,20.77
2023-01-19T15:48:05.987Z,20.76
2023-01-19T15:49:05.936Z,20.75
2023-01-19T15:50:05.972Z,20.75
2023-01-19T15:51:05.845Z,20.75
2023-01-19T15:52:05.791Z,20.74
2023-01-19T15:53:05.769Z,20.73
2023-01-19T15:54:05.755Z,20.73
2023-01-19T15:55:05.752Z,20.72
2023-01-19T16:01:05.727Z,20.69
2023-01-19T16:07:05.695Z,20.66
2023-01-19T16:08:05.654Z,20.66
2023-01-19T16:09:05.642Z,20.66
2023-01-19T16:10:05.649Z,20.64
2023-01-19T16:11:05.631Z,20.64
2023-01-19T16:12:05.628Z,20.64
2023-01-19T16:13:05.634Z,20.64
2023-01-19T16:14:05.677Z,20.64
2023-01-19T16:15:05.641Z,20.63
2023-01-19T16:16:05.670Z,20.62
2023-01-19T16:17:05.652Z,20.61
2023-01-19T16:18:05.629Z,20.61
2023-01-19T16:19:05.628Z,20.60
2023-01-19T16:20:05.635Z,20.60
2023-01-19T16:21:05.654Z,20.60
2023-01-19T16:22:05.643Z,20.59
2023-01-19T16:23:19.616Z,20.59
2023-01-19T16:25:05.562Z,20.57
2023-01-19T16:26:05.521Z,20.57
2023-01-19T20:52:58.776Z,19.90
2023-01-19T21:06:58.319Z,19.88
2023-01-19T21:07:58.344Z,19.87
2023-01-19T21:08:58.302Z,19.88
2023-01-19T21:09:58.269Z,19.88
2023-01-19T21:10:58.237Z,19.87
2023-01-19T21:11:58.213Z,19.87
2023-01-19T21:12:58.196Z,19.87
2023-01-19T21:13:58.172Z,19.86
2023-01-19T21:14:58.189Z,19.87
2023-01-19T21:15:58.209Z,19.86
2023-01-19T21:16:58.108Z,19.86
2023-01-19T21:17:58.077Z,19.86
2023-01-19T21:18:58.046Z,19.86
2023-01-19T21:19:58.028Z,19.86
2023-01-19T21:20:58.099Z,19.86
2023-01-19T21:21:57.986Z,19.85
2023-01-19T21:22:58.002Z,19.85
2023-01-19T21:23:57.963Z,19.85
2023-01-19T21:24:58.056Z,19.85
2023-01-19T21:25:57.872Z,19.85
2023-01-19T21:26:57.854Z,19.85
2023-01-19T21:27:57.963Z,19.85
2023-01-19T21:28:57.835Z,19.85
2023-01-19T21:29:58.051Z,19.85
2023-01-19T21:30:57.783Z,19.84
2023-01-19T21:31:57.885Z,19.85
2023-01-19T21:32:57.725Z,19.84
2023-01-19T21:33:57.761Z,19.85
2023-01-19T21:34:57.676Z,19.85
2023-01-19T21:35:57.656Z,19.84
2023-01-19T21:36:57.634Z,19.85
2023-01-19T21:37:57.614Z,19.84
2023-01-19T21:38:57.581Z,19.83
2023-01-19T21:39:57.577Z,19.84
2023-01-19T21:40:57.543Z,19.83
2023-01-19T21:41:57.520Z,19.83
2023-01-19T21:42:57.499Z,19.83
2023-01-19T21:43:57.479Z,19.83
2023-01-19T21:44:57.484Z,19.83
2023-01-19T21:45:57.446Z,19.83
2023-01-19T21:46:57.402Z,19.82
2023-01-19T21:47:57.376Z,19.82
2023-01-19T21:48:57.357Z,19.82
2023-01-19T21:49:57.337Z,19.82
2023-01-19T21:50:57.300Z,19.82
2023-01-19T21:51:57.275Z,19.82
2023-01-19T21:52:57.273Z,19.81
2023-01-19T21:53:57.218Z,19.81
2023-01-19T22:01:57.171Z,19.79
2023-01-19T22:03:03.772Z,19.79
2023-01-19T22:04:56.932Z,19.79
2023-01-19T22:05:56.877Z,19.79
2023-01-19T22:06:56.838Z,19.78
2023-01-19T22:07:56.803Z,19.79
2023-01-19T22:08:56.776Z,19.79
2023-01-19T22:09:57.574Z,19.79
2023-01-19T22:10:56.715Z,19.78
2023-01-19T22:11:56.669Z,19.79
2023-01-19T22:12:56.611Z,19.78
2023-01-19T22:13:56.584Z,19.78
2023-01-19T22:14:56.525Z,19.78
2023-01-19T22:15:56.559Z,19.78
2023-01-19T22:16:56.505Z,19.78
2023-01-19T22:17:56.410Z,19.77
2023-01-19T22:18:56.401Z,19.77
2023-01-19T22:19:56.331Z,19.77
2023-01-19T22:20:56.319Z,19.77
2023-01-19T22:21:56.262Z,19.77
2023-01-19T22:22:56.191Z,19.77
2023-01-19T22:23:56.178Z,19.77
2023-01-19T22:24:56.114Z,19.77
2023-01-19T22:25:56.071Z,19.77
2023-01-19T22:26:56.047Z,19.76
2023-01-19T22:27:55.993Z,19.76
2023-01-19T22:28:55.957Z,19.76
2023-01-19T22:29:55.930Z,19.76
2023-01-19T22:30:55.938Z,19.75
2023-01-19T22:31:55.864Z,19.76
2023-01-19T22:32:55.781Z,19.76
2023-01-19T22:33:55.741Z,19.75
2023-01-19T22:34:55.711Z,19.75
2023-01-19T22:35:55.707Z,19.75
2023-01-19T22:36:55.669Z,19.75
2023-01-19T22:37:55.650Z,19.74
2023-01-19T22:38:55.710Z,19.75
2023-01-19T22:39:55.610Z,19.75
2023-01-19T22:40:55.608Z,19.75
2023-01-19T22:41:55.583Z,19.75
2023-01-19T22:42:55.570Z,19.74
2023-01-19T22:43:55.553Z,19.74
2023-01-19T22:44:55.536Z,19.74
2023-01-19T22:45:55.552Z,19.73
2023-01-19T22:46:55.571Z,19.74
